Time;durP1;ratioP1;P1;durP2;ratioP2;P2;SDS_P1;SDS_P2;PMS_P1;PMS_P2;Temp;Humidity;BMP_temperature;BMP_pressure;BME280_temperature;BME280_humidity;BME280_pressure;Samples;Min_cycle;Max_cycle;Signal;HPM_P1;HPM_P2
2023/08/25 00:05:27;;;;;;;6.12;2.62;;;;;;;20.39;100.00;97513.59;18297321;32;20088;-57
2023/08/25 00:15:29;;;;;;;3.80;2.60;;;;;;;20.20;100.00;97558.00;18283269;32;20049;-57
2023/08/25 00:25:32;;;;;;;5.83;2.83;;;;;;;20.29;100.00;97515.59;18297067;32;20050;-57
2023/08/25 00:35:35;;;;;;;8.70;2.63;;;;;;;20.18;100.00;97563.84;18269062;32;20076;-57
2023/08/25 00:45:41;;;;;;;10.40;3.30;;;;;;;20.27;100.00;97530.84;18295691;32;20154;-54
2023/08/25 00:55:45;;;;;;;5.93;2.70;;;;;;;20.02;100.00;97508.78;18295379;32;20357;-57
2023/08/25 01:05:48;;;;;;;5.00;2.53;;;;;;;20.10;100.00;97474.12;18294647;32;20146;-57
2023/08/25 01:15:54;;;;;;;4.65;2.45;;;;;;;20.11;100.00;97462.81;18294855;32;20110;-57
2023/08/25 01:25:58;;;;;;;4.43;2.50;;;;;;;20.14;100.00;97502.50;18300544;32;20392;-57
2023/08/25 01:36:12;;;;;;;6.75;2.90;;;;;;;20.12;100.00;97537.75;18304702;32;20384;-57
2023/08/25 01:46:17;;;;;;;5.95;2.87;;;;;;;20.18;100.00;97459.53;18290539;32;20560;-57
2023/08/25 01:56:20;;;;;;;5.78;3.12;;;;;;;20.17;100.00;97457.13;18289965;32;20070;-57
2023/08/25 02:06:22;;;;;;;6.07;3.33;;;;;;;20.21;100.00;97458.03;18303659;32;20072;-57
2023/08/25 02:16:24;;;;;;;7.90;3.10;;;;;;;20.05;100.00;97449.63;18289382;32;20343;-57
2023/08/25 02:26:27;;;;;;;5.65;2.92;;;;;;;20.08;100.00;97416.06;18302862;32;20070;-57
2023/08/25 02:36:29;;;;;;;5.18;2.80;;;;;;;20.04;100.00;97390.41;18287878;32;20058;-57
2023/08/25 02:46:32;;;;;;;7.37;2.70;;;;;;;19.90;100.00;97388.78;18287627;32;20050;-57
2023/08/25 02:56:34;;;;;;;5.60;2.93;;;;;;;19.85;100.00;97366.25;18301238;32;20092;-57
2023/08/25 03:06:37;;;;;;;3.57;2.20;;;;;;;19.79;100.00;97351.91;18300491;32;20076;-57
2023/08/25 03:16:39;;;;;;;5.57;3.07;;;;;;;19.79;100.00;97332.72;18300066;32;20088;-57
2023/08/25 03:26:42;;;;;;;6.07;2.40;;;;;;;19.79;100.00;97319.00;18285964;32;20046;-57
2023/08/25 03:36:45;;;;;;;3.57;2.27;;;;;;;19.74;100.00;97319.22;18285303;32;20490;-57
2023/08/25 03:46:48;;;;;;;4.20;2.62;;;;;;;19.73;100.00;97296.44;18297784;32;20460;-57
2023/08/25 03:56:50;;;;;;;5.07;2.53;;;;;;;19.70;100.00;97290.84;18272018;32;20066;-57
2023/08/25 04:06:53;;;;;;;5.00;1.90;;;;;;;19.66;100.00;97279.75;18297973;32;20117;-57
2023/08/25 04:16:57;;;;;;;4.93;2.92;;;;;;;19.51;100.00;97286.66;18296978;32;20118;-56
2023/08/25 04:26:59;;;;;;;3.63;2.60;;;;;;;19.48;100.00;97290.09;18296629;32;20054;-57
2023/08/25 04:37:03;;;;;;;5.10;3.13;;;;;;;19.51;100.00;97289.41;18295969;32;20190;-57
2023/08/25 04:47:06;;;;;;;4.80;2.80;;;;;;;19.56;100.00;97302.13;18270064;32;20054;-57
2023/08/25 04:57:08;;;;;;;7.60;3.17;;;;;;;19.58;100.00;97300.66;18280586;32;20069;-57
2023/08/25 05:07:11;;;;;;;6.70;3.07;;;;;;;19.67;100.00;97299.75;18281048;32;20117;-57
2023/08/25 05:17:15;;;;;;;4.25;3.08;;;;;;;19.68;100.00;97317.81;18294427;32;20058;-57
2023/08/25 05:27:18;;;;;;;5.65;2.37;;;;;;;19.79;100.00;97329.97;18293925;32;20069;-57
2023/08/25 05:37:20;;;;;;;5.70;2.60;;;;;;;19.88;100.00;97344.41;18279685;32;20091;-57
2023/08/25 05:47:23;;;;;;;4.63;2.60;;;;;;;20.00;100.00;97356.56;18279687;32;20339;-57
2023/08/25 05:57:25;;;;;;;4.33;2.67;;;;;;;20.16;100.00;97349.28;18293211;32;20054;-57
2023/08/25 06:07:28;;;;;;;4.57;3.23;;;;;;;20.42;100.00;97449.75;18294231;32;20443;-57
2023/08/25 06:17:30;;;;;;;6.77;2.87;;;;;;;20.35;100.00;97546.44;18289264;32;20041;-57
2023/08/25 06:27:33;;;;;;;12.47;2.83;;;;;;;20.20;100.00;97640.38;18302440;32;20407;-57
2023/08/25 06:37:36;;;;;;;6.97;3.60;;;;;;;20.27;100.00;97627.72;18301681;32;20434;-57
2023/08/25 06:47:39;;;;;;;5.82;3.75;;;;;;;20.24;100.00;97661.34;18288059;32;20047;-57
2023/08/25 06:57:42;;;;;;;7.57;4.07;;;;;;;20.28;100.00;97655.97;18287569;32;20096;-57
2023/08/25 07:07:44;;;;;;;4.03;3.00;;;;;;;20.30;100.00;97714.91;18287414;32;20077;-57
2023/08/25 07:17:47;;;;;;;3.57;3.03;;;;;;;20.34;100.00;97711.50;18299839;32;20094;-57
2023/08/25 07:27:50;;;;;;;3.83;3.35;;;;;;;20.38;100.00;97704.19;18299803;32;20054;-57
2023/08/25 07:37:53;;;;;;;;;;;;;;;20.47;100.00;97730.47;18285799;32;20074;-58
2023/08/25 07:48:01;;;;;;;;;;;;;;;20.73;100.00;97691.03;18284790;32;19946;-57
2023/08/25 07:58:04;;;;;;;4.45;3.12;;;;;;;20.99;100.00;97662.50;18298432;32;19972;-57
2023/08/25 08:08:09;;;;;;;3.67;3.25;;;;;;;21.35;100.00;97663.75;18297475;32;20046;-57
2023/08/25 08:18:12;;;;;;;4.40;3.03;;;;;;;21.86;100.00;97657.94;18283120;32;20062;-57
2023/08/25 08:28:14;;;;;;;4.68;3.65;;;;;;;22.39;100.00;97673.72;18297083;32;20050;-57
2023/08/25 08:38:17;;;;;;;4.30;3.62;;;;;;;22.56;100.00;97692.75;18295789;32;20051;-57
2023/08/25 08:48:21;;;;;;;4.57;3.85;;;;;;;22.85;100.00;97712.88;18295454;32;20054;-57
2023/08/25 08:58:24;;;;;;;5.00;4.07;;;;;;;23.16;100.00;97712.19;18295351;32;20073;-57
2023/08/25 09:08:27;;;;;;;5.78;4.70;;;;;;;23.54;100.00;97740.38;18294445;32;20077;-57
2023/08/25 09:18:36;;;;;;;7.35;4.93;;;;;;;23.87;100.00;97741.97;18280610;32;20101;-57
2023/08/25 09:28:38;;;;;;;7.60;4.93;;;;;;;24.25;100.00;97757.12;18294143;32;20131;-57
2023/08/25 09:38:46;;;;;;;5.53;5.00;;;;;;;24.42;100.00;97766.19;18293882;32;20065;-57
2023/08/25 09:49:04;;;;;;;6.97;5.75;;;;;;;24.58;100.00;97755.13;18302030;32;20046;-57
2023/08/25 09:59:08;;;;;;;5.78;5.18;;;;;;;24.83;100.00;97758.44;18290510;32;20061;-57
2023/08/25 10:09:11;;;;;;;7.72;5.53;;;;;;;25.24;100.00;97756.12;18303233;32;20049;-57
2023/08/25 10:19:14;;;;;;;6.18;5.55;;;;;;;25.39;100.00;97761.97;18303147;32;20058;-57
2023/08/25 10:29:22;;;;;;;5.50;4.87;;;;;;;25.45;100.00;97766.03;18288357;32;20076;-57
2023/08/25 10:39:57;;;;;;;7.93;4.80;;;;;;;25.53;100.00;97745.63;18302032;32;20057;-57
2023/08/25 10:50:03;;;;;;;9.18;6.25;;;;;;;25.39;100.00;97750.91;18287397;32;20054;-58
2023/08/25 11:00:27;;;;;;;7.78;5.37;;;;;;;25.33;100.00;97715.22;18300313;32;20140;-57
2023/08/25 11:10:35;;;;;;;5.30;4.50;;;;;;;25.25;100.00;97662.84;18286601;32;20105;-57
2023/08/25 11:20:45;;;;;;;6.97;4.47;;;;;;;25.21;100.00;97601.91;18299986;32;20074;-57
2023/08/25 11:30:47;;;;;;;5.57;3.33;;;;;;;25.06;100.00;97564.09;18286038;32;20077;-57
2023/08/25 11:40:55;;;;;;;7.50;3.15;;;;;;;24.69;100.00;97505.41;18298854;32;20098;-57
2023/08/25 11:50:59;;;;;;;5.12;3.10;;;;;;;24.30;100.00;97364.53;18298453;32;20054;-57
2023/08/25 12:01:07;;;;;;;3.87;2.80;;;;;;;24.18;100.00;97346.16;18297722;32;20100;-57
2023/08/25 12:11:10;;;;;;;4.78;2.58;;;;;;;24.02;100.00;97349.06;18297185;32;20050;-57
2023/08/25 12:21:14;;;;;;;2.85;2.50;;;;;;;24.19;100.00;97367.09;18297307;32;20073;-57
2023/08/25 12:31:16;;;;;;;3.33;2.20;;;;;;;24.32;100.00;97366.91;18296487;32;20407;-57
2023/08/25 12:41:19;;;;;;;2.47;2.28;;;;;;;24.23;100.00;97372.69;18232180;32;20434;-57
2023/08/25 12:51:22;;;;;;;3.28;2.25;;;;;;;24.01;100.00;97347.44;18231846;32;20070;-57
2023/08/25 13:01:25;;;;;;;5.68;2.40;;;;;;;23.66;100.00;97253.72;18231372;32;20058;-57
2023/08/25 13:11:28;;;;;;;2.75;2.28;;;;;;;23.16;100.00;97355.63;18231962;32;20054;-58
2023/08/25 13:21:31;;;;;;;;;;;;;;;23.24;100.00;97335.31;18230091;32;20113;-57
2023/08/25 13:31:34;;;;;;;3.57;2.13;;;;;;;23.41;100.00;97382.94;18231478;32;19957;-57
2023/08/25 13:41:36;;;;;;;2.35;2.03;;;;;;;24.08;100.00;97415.84;18292467;32;20058;-57
2023/08/25 13:51:39;;;;;;;2.40;1.92;;;;;;;24.78;100.00;97444.31;18266576;32;20058;-58
2023/08/25 14:01:42;;;;;;;2.90;2.25;;;;;;;24.55;100.00;97433.25;18279491;32;20384;-57
2023/08/25 14:11:44;;;;;;;2.35;2.15;;;;;;;24.03;100.00;97419.69;18292288;32;20058;-57
2023/08/25 14:21:47;;;;;;;;;;;;;;;23.47;100.00;97348.34;18278607;32;20097;-57
2023/08/25 14:31:49;;;;;;;3.50;2.50;;;;;;;23.20;100.00;97356.50;18296659;32;19949;-58
2023/08/25 14:41:55;;;;;;;3.08;2.17;;;;;;;23.41;100.00;97342.34;18288546;32;20450;-58
2023/08/25 14:51:58;;;;;;;2.12;1.92;;;;;;;23.82;100.00;97323.41;18301634;32;20073;-57
2023/08/25 15:02:01;;;;;;;3.75;2.12;;;;;;;24.13;100.00;97318.06;18274939;32;20057;-58
2023/08/25 15:12:05;;;;;;;4.43;2.40;;;;;;;24.39;100.00;97303.47;18300609;32;20050;-58
2023/08/25 15:22:08;;;;;;;2.95;2.28;;;;;;;24.65;100.00;97311.03;18299939;32;20398;-57
2023/08/25 15:32:10;;;;;;;6.07;2.50;;;;;;;24.61;100.00;97359.09;18299337;32;20067;-57
2023/08/25 15:42:14;;;;;;;2.78;2.40;;;;;;;24.06;100.00;97346.34;18298486;32;20120;-57
2023/08/25 15:52:17;;;;;;;3.50;2.67;;;;;;;23.56;100.00;97299.28;18284542;32;20064;-57
2023/08/25 16:02:19;;;;;;;5.60;2.75;;;;;;;23.17;100.00;97318.59;18298075;32;20119;-57
2023/08/25 16:12:23;;;;;;;;;;;;;;;22.83;100.00;97327.28;18284135;32;20054;-57
2023/08/25 16:22:25;;;;;;;4.80;2.95;;;;;;;22.58;100.00;97290.88;18284011;32;19950;-58
2023/08/25 16:32:28;;;;;;;7.87;2.75;;;;;;;22.39;100.00;97316.41;18296495;32;20102;-56
2023/08/25 16:42:31;;;;;;;10.02;3.00;;;;;;;22.41;100.00;97325.13;18296147;32;20377;-57
2023/08/25 16:52:33;;;;;;;;;;;;;;;22.27;100.00;97333.81;18269312;32;20058;-57
2023/08/25 17:02:36;;;;;;;7.87;3.47;;;;;;;22.32;100.00;97347.34;18295547;32;19976;-57
2023/08/25 17:12:40;;;;;;;5.07;3.28;;;;;;;22.52;100.00;97327.38;18294743;32;20047;-56
2023/08/25 17:22:43;;;;;;;10.52;3.33;;;;;;;22.40;100.00;97303.47;18281251;32;20399;-57
2023/08/25 17:32:46;;;;;;;7.85;2.87;;;;;;;22.31;100.00;97300.84;18280074;32;20454;-56
2023/08/25 17:42:48;;;;;;;3.87;3.15;;;;;;;22.16;100.00;97310.75;18280274;32;20066;-56
2023/08/25 17:52:52;;;;;;;6.43;2.60;;;;;;;21.83;100.00;97328.38;18279730;32;20421;-57
2023/08/25 18:02:55;;;;;;;6.82;3.60;;;;;;;21.59;100.00;97349.34;18293682;32;20442;-56
2023/08/25 18:13:00;;;;;;;5.10;2.80;;;;;;;21.50;100.00;97323.91;18289948;32;20107;-56
2023/08/25 18:23:03;;;;;;;5.18;3.25;;;;;;;21.37;100.00;97303.91;18289014;32;20068;-56
2023/08/25 18:33:09;;;;;;;5.85;3.50;;;;;;;21.20;100.00;97293.22;18302090;32;20058;-56
2023/08/25 18:43:11;;;;;;;7.37;3.47;;;;;;;21.03;100.00;97297.06;18302626;32;20358;-57
2023/08/25 18:53:14;;;;;;;6.37;3.45;;;;;;;20.88;100.00;97291.12;18275153;32;20102;-56
2023/08/25 19:03:19;;;;;;;3.60;3.30;;;;;;;20.69;100.00;97274.47;18287527;32;20409;-56
2023/08/25 19:13:23;;;;;;;5.50;3.22;;;;;;;20.52;100.00;97287.28;18300995;32;20042;-56
2023/08/25 19:23:27;;;;;;;6.03;3.07;;;;;;;20.41;100.00;97310.84;18272573;32;20099;-56
2023/08/25 19:33:30;;;;;;;4.72;3.30;;;;;;;20.25;100.00;97327.19;18285895;32;20058;-56
2023/08/25 19:43:35;;;;;;;7.28;2.97;;;;;;;20.11;100.00;97360.47;18299117;32;20392;-56
2023/08/25 19:53:37;;;;;;;9.02;2.97;;;;;;;20.09;100.00;97365.47;18285079;32;20047;-56
2023/08/25 20:03:41;;;;;;;4.20;2.80;;;;;;;20.06;100.00;97353.28;18298335;32;20093;-56
2023/08/25 20:13:43;;;;;;;;;;;;;;;19.93;100.00;97374.38;18284541;32;20068;-56
2023/08/25 20:23:46;;;;;;;6.35;3.55;;;;;;;19.91;100.00;97368.44;18297380;32;19941;-56
2023/08/25 20:33:49;;;;;;;5.13;3.87;;;;;;;19.91;100.00;97370.38;18282475;32;20483;-56
2023/08/25 20:43:52;;;;;;;5.65;3.05;;;;;;;19.91;100.00;97398.62;18283010;32;20081;-57
2023/08/25 20:53:56;;;;;;;5.47;3.10;;;;;;;19.90;100.00;97404.44;18295860;32;20046;-56
2023/08/25 21:03:59;;;;;;;7.47;3.00;;;;;;;19.88;100.00;97423.97;18281684;32;20070;-57
2023/08/25 21:14:02;;;;;;;4.62;3.08;;;;;;;19.93;100.00;97406.50;18294664;32;20055;-57
2023/08/25 21:24:05;;;;;;;5.05;3.55;;;;;;;19.87;100.00;97392.22;18294545;32;20054;-57
2023/08/25 21:34:11;;;;;;;6.32;3.10;;;;;;;19.86;100.00;97387.84;18293889;32;20739;-56
2023/08/25 21:44:14;;;;;;;4.37;3.20;;;;;;;19.83;100.00;97399.50;18301692;32;20066;-56
2023/08/25 21:54:17;;;;;;;3.33;2.97;;;;;;;19.83;100.00;97394.03;18304862;32;20043;-56
2023/08/25 22:04:19;;;;;;;4.43;3.47;;;;;;;19.83;100.00;97405.00;18303916;32;20102;-57
2023/08/25 22:14:22;;;;;;;5.78;3.72;;;;;;;19.85;100.00;97386.25;18303618;32;20090;-56
2023/08/25 22:24:25;;;;;;;5.70;3.60;;;;;;;19.83;100.00;97394.03;18303001;32;20427;-56
2023/08/25 22:34:27;;;;;;;5.07;3.37;;;;;;;19.78;100.00;97402.44;18302331;32;20147;-56
2023/08/25 22:44:30;;;;;;;5.68;3.67;;;;;;;19.75;100.00;97408.59;18288514;32;20058;-56
2023/08/25 22:54:35;;;;;;;5.50;3.47;;;;;;;19.74;100.00;97393.25;18301326;32;20418;-57
2023/08/25 23:04:37;;;;;;;8.60;4.37;;;;;;;19.67;100.00;97423.19;18274701;32;20049;-57
2023/08/25 23:14:40;;;;;;;5.93;4.27;;;;;;;19.56;100.00;97444.72;18286577;32;20400;-56
2023/08/25 23:24:43;;;;;;;5.60;3.53;;;;;;;19.63;100.00;97442.25;18286348;32;20494;-57
2023/08/25 23:34:46;;;;;;;7.68;3.83;;;;;;;19.67;100.00;97451.41;18299347;32;20434;-56
2023/08/25 23:44:48;;;;;;;5.22;3.65;;;;;;;19.72;100.00;97475.06;18285307;32;20054;-56
2023/08/25 23:54:50;;;;;;;3.97;3.57;;;;;;;19.73;100.00;97469.25;18284175;32;20043;-56
